Time;durP1;ratioP1;P1;durP2;ratioP2;P2;SDS_P1;SDS_P2;PMS_P1;PMS_P2;Temp;Humidity;BMP_temperature;BMP_pressure;BME280_temperature;BME280_humidity;BME280_pressure;Samples;Min_cycle;Max_cycle;Signal;HPM_P1;HPM_P2
2023/09/28 00:01:17;;;;;;;18.25;8.98;;;;;;;;;;6179594;23;20190;-94
2023/09/28 00:04:23;;;;;;;18.58;9.15;;;;;;;;;;6181034;22;20195;-89
2023/09/28 00:07:29;;;;;;;15.32;8.45;;;;;;;;;;6182918;23;20164;-93
2023/09/28 00:10:35;;;;;;;16.65;8.93;;;;;;;;;;6181264;23;20266;-93
2023/09/28 00:13:40;;;;;;;17.27;8.68;;;;;;;;;;6181970;23;20170;-91
2023/09/28 00:16:44;;;;;;;15.98;8.95;;;;;;;;;;6180792;23;20228;-91
2023/09/28 00:19:49;;;;;;;16.63;8.45;;;;;;;;;;6181137;23;20674;-90
2023/09/28 00:22:56;;;;;;;19.73;9.38;;;;;;;;;;6181329;23;20212;-94
2023/09/28 00:26:02;;;;;;;17.50;9.68;;;;;;;;;;6181251;23;20506;-92
2023/09/28 00:29:06;;;;;;;32.58;10.20;;;;;;;;;;6181493;23;20211;-94
2023/09/28 00:32:12;;;;;;;38.42;10.43;;;;;;;;;;6180965;23;20268;-91
2023/09/28 00:35:18;;;;;;;21.05;11.10;;;;;;;;;;6200110;22;20615;-93
2023/09/28 00:38:23;;;;;;;21.25;10.10;;;;;;;;;;6199327;22;20168;-92
2023/09/28 00:41:28;;;;;;;16.15;9.68;;;;;;;;;;6199004;23;20168;-93
2023/09/28 00:44:32;;;;;;;19.40;9.98;;;;;;;;;;6182017;23;20152;-90
2023/09/28 00:47:39;;;;;;;16.08;9.35;;;;;;;;;;6180576;23;20156;-91
2023/09/28 00:50:44;;;;;;;19.45;9.52;;;;;;;;;;6180999;23;20495;-91
2023/09/28 00:53:51;;;;;;;20.67;9.65;;;;;;;;;;6181931;22;20652;-94
2023/09/28 00:56:57;;;;;;;29.45;10.70;;;;;;;;;;6182395;23;20168;-93
2023/09/28 01:00:15;;;;;;;20.20;10.52;;;;;;;;;;6199874;23;20239;-92
2023/09/28 01:03:20;;;;;;;17.75;9.63;;;;;;;;;;6183351;23;20262;-93
2023/09/28 01:06:25;;;;;;;17.67;9.32;;;;;;;;;;6182741;23;20498;-91
2023/09/28 01:09:32;;;;;;;21.38;9.98;;;;;;;;;;6182539;23;20231;-92
2023/09/28 01:12:39;;;;;;;22.83;9.77;;;;;;;;;;6182027;23;20192;-91
2023/09/28 01:15:46;;;;;;;20.58;9.82;;;;;;;;;;6183112;23;20232;-90
2023/09/28 01:18:52;;;;;;;17.73;9.20;;;;;;;;;;6184051;23;20163;-94
2023/09/28 01:21:57;;;;;;;22.05;9.63;;;;;;;;;;6182961;22;20643;-93
2023/09/28 01:25:03;;;;;;;31.90;9.27;;;;;;;;;;6183125;23;20280;-90
2023/09/28 01:28:10;;;;;;;20.08;8.73;;;;;;;;;;6183564;23;20184;-93
2023/09/28 01:31:17;;;;;;;15.00;9.00;;;;;;;;;;6181507;23;20167;-90
2023/09/28 01:34:22;;;;;;;17.75;9.07;;;;;;;;;;6183206;23;20151;-92
2023/09/28 01:37:30;;;;;;;15.88;8.95;;;;;;;;;;6181505;22;20179;-91
2023/09/28 01:40:36;;;;;;;17.98;9.90;;;;;;;;;;6182125;23;20168;-91
2023/09/28 01:43:41;;;;;;;19.00;9.57;;;;;;;;;;6183023;23;20195;-94
2023/09/28 01:46:47;;;;;;;18.33;9.13;;;;;;;;;;6181476;23;20167;-91
2023/09/28 01:49:52;;;;;;;15.38;8.38;;;;;;;;;;6182311;23;20152;-91
2023/09/28 01:52:57;;;;;;;17.52;9.48;;;;;;;;;;6183589;23;20160;-92
2023/09/28 01:56:04;;;;;;;17.95;9.23;;;;;;;;;;6183295;23;20172;-94
2023/09/28 01:59:09;;;;;;;17.67;8.35;;;;;;;;;;6183270;23;20168;-91
2023/09/28 02:02:16;;;;;;;18.00;8.88;;;;;;;;;;6181293;23;20211;-91
2023/09/28 02:05:21;;;;;;;13.50;8.50;;;;;;;;;;6181881;23;20249;-92
2023/09/28 02:08:26;;;;;;;19.15;8.18;;;;;;;;;;6182912;23;20219;-92
2023/09/28 02:11:33;;;;;;;24.05;9.07;;;;;;;;;;6182297;23;20171;-91
2023/09/28 02:14:37;;;;;;;18.58;8.68;;;;;;;;;;6181038;23;20499;-92
2023/09/28 02:17:42;;;;;;;16.10;8.23;;;;;;;;;;6180977;23;20168;-89
2023/09/28 02:20:46;;;;;;;16.80;8.13;;;;;;;;;;6181903;23;20172;-92
2023/09/28 02:23:51;;;;;;;12.45;7.75;;;;;;;;;;6182262;23;20191;-92
2023/09/28 02:26:57;;;;;;;17.48;8.27;;;;;;;;;;6181242;23;20159;-93
2023/09/28 02:30:04;;;;;;;16.52;8.63;;;;;;;;;;6180882;23;20195;-91
2023/09/28 02:33:10;;;;;;;20.98;8.80;;;;;;;;;;6181228;23;20164;-92
2023/09/28 02:36:15;;;;;;;21.15;8.13;;;;;;;;;;6181792;23;20203;-92
2023/09/28 02:39:20;;;;;;;22.48;9.23;;;;;;;;;;6182039;23;20627;-94
2023/09/28 02:42:26;;;;;;;18.23;8.82;;;;;;;;;;6181014;23;20647;-92
2023/09/28 02:45:31;;;;;;;19.60;8.90;;;;;;;;;;6180647;23;20175;-93
2023/09/28 02:48:35;;;;;;;14.15;8.57;;;;;;;;;;6181548;23;20167;-90
2023/09/28 02:51:42;;;;;;;19.60;8.98;;;;;;;;;;6181286;23;20187;-92
2023/09/28 02:54:46;;;;;;;18.30;9.00;;;;;;;;;;6181045;23;20341;-93
2023/09/28 02:57:54;;;;;;;20.88;9.00;;;;;;;;;;6179879;23;20164;-94
2023/09/28 03:01:00;;;;;;;17.02;8.55;;;;;;;;;;6180820;23;20242;-92
2023/09/28 03:04:06;;;;;;;16.17;8.88;;;;;;;;;;6180168;23;20254;-90
2023/09/28 03:07:09;;;;;;;17.02;8.60;;;;;;;;;;6178624;23;20247;-91
2023/09/28 03:10:16;;;;;;;21.15;9.32;;;;;;;;;;6178944;23;20164;-91
2023/09/28 03:13:24;;;;;;;16.58;8.32;;;;;;;;;;6180563;23;20168;-92
2023/09/28 03:16:28;;;;;;;17.52;9.07;;;;;;;;;;6179091;23;20172;-92
2023/09/28 03:19:33;;;;;;;17.42;9.43;;;;;;;;;;6178412;23;20606;-92
2023/09/28 03:22:39;;;;;;;25.92;9.18;;;;;;;;;;6178312;23;20195;-93
2023/09/28 03:25:44;;;;;;;16.20;9.32;;;;;;;;;;6178209;23;20207;-91
2023/09/28 03:28:50;;;;;;;19.20;9.45;;;;;;;;;;6178776;23;20172;-94
2023/09/28 03:31:54;;;;;;;17.98;8.63;;;;;;;;;;6179150;23;20164;-94
2023/09/28 03:34:59;;;;;;;15.93;9.35;;;;;;;;;;6179539;23;20183;-91
2023/09/28 03:38:05;;;;;;;20.95;9.52;;;;;;;;;;6180187;23;20172;-90
2023/09/28 03:41:11;;;;;;;17.23;9.27;;;;;;;;;;6180231;23;20155;-91
2023/09/28 03:44:17;;;;;;;17.30;8.55;;;;;;;;;;6181215;23;20195;-94
2023/09/28 03:47:22;;;;;;;20.35;9.50;;;;;;;;;;6180635;23;20199;-90
2023/09/28 03:50:27;;;;;;;18.23;9.40;;;;;;;;;;6180237;23;20171;-94
2023/09/28 03:53:33;;;;;;;20.35;9.38;;;;;;;;;;6179350;23;20175;-91
2023/09/28 03:56:38;;;;;;;18.02;9.43;;;;;;;;;;6178749;23;20172;-92
2023/09/28 03:59:45;;;;;;;16.35;9.75;;;;;;;;;;6180789;23;20176;-93
2023/09/28 04:02:51;;;;;;;19.25;9.13;;;;;;;;;;6181566;23;20188;-90
2023/09/28 04:05:56;;;;;;;20.35;9.55;;;;;;;;;;6181206;23;20159;-94
2023/09/28 04:09:03;;;;;;;19.77;9.50;;;;;;;;;;6181450;23;20180;-91
2023/09/28 04:12:08;;;;;;;30.23;11.07;;;;;;;;;;6181889;23;20167;-89
2023/09/28 04:15:16;;;;;;;22.05;8.75;;;;;;;;;;6199612;23;20164;-91
2023/09/28 04:18:21;;;;;;;14.85;8.43;;;;;;;;;;6183059;23;20221;-91
2023/09/28 04:21:26;;;;;;;16.73;8.88;;;;;;;;;;6181990;23;20188;-90
2023/09/28 04:24:35;;;;;;;17.70;8.90;;;;;;;;;;6184403;23;20195;-93
2023/09/28 04:27:40;;;;;;;14.20;8.35;;;;;;;;;;6184170;23;20167;-90
2023/09/28 04:30:48;;;;;;;21.10;8.60;;;;;;;;;;6181641;23;20175;-93
2023/09/28 04:33:56;;;;;;;16.45;9.98;;;;;;;;;;6180766;23;20253;-92
2023/09/28 04:37:03;;;;;;;19.23;10.02;;;;;;;;;;6181424;23;20631;-93
2023/09/28 04:40:10;;;;;;;20.55;8.88;;;;;;;;;;6200064;23;20171;-92
2023/09/28 04:43:15;;;;;;;19.25;9.00;;;;;;;;;;6183694;23;20260;-91
2023/09/28 04:46:22;;;;;;;24.77;9.80;;;;;;;;;;6179908;23;20176;-92
2023/09/28 04:49:28;;;;;;;19.30;9.10;;;;;;;;;;6183343;23;20168;-91
2023/09/28 04:52:33;;;;;;;19.98;8.40;;;;;;;;;;6183268;23;20167;-94
2023/09/28 04:55:38;;;;;;;23.67;9.15;;;;;;;;;;6183900;23;20168;-93
2023/09/28 04:58:44;;;;;;;18.80;8.88;;;;;;;;;;6184401;23;20238;-93
2023/09/28 05:01:50;;;;;;;21.75;9.45;;;;;;;;;;6183897;23;20211;-91
2023/09/28 05:04:55;;;;;;;20.45;10.25;;;;;;;;;;6185407;23;20220;-91
2023/09/28 05:08:02;;;;;;;19.98;9.10;;;;;;;;;;6202283;23;20167;-95
2023/09/28 05:11:07;;;;;;;20.58;10.90;;;;;;;;;;6184729;23;20171;-94
2023/09/28 05:14:24;;;;;;;20.83;9.38;;;;;;;;;;6202292;22;20167;-93
2023/09/28 05:17:39;;;;;;;18.63;10.23;;;;;;;;;;6189105;22;20171;-93
2023/09/28 05:20:50;;;;;;;17.05;8.82;;;;;;;;;;6206486;22;20225;-92
2023/09/28 08:01:41;;;;;;;25.10;9.57;;;;;;;;;;6160042;22;20219;-93
2023/09/28 08:04:47;;;;;;;34.55;10.93;;;;;;;;;;6183236;23;20190;-93
2023/09/28 08:07:52;;;;;;;27.67;10.93;;;;;;;;;;6182136;23;20172;-92
2023/09/28 08:11:00;;;;;;;34.95;12.00;;;;;;;;;;6198107;23;20196;-92
2023/09/28 08:14:09;;;;;;;40.63;13.15;;;;;;;;;;6200942;23;20246;-93
2023/09/28 08:17:16;;;;;;;39.50;14.75;;;;;;;;;;6182752;22;20172;-93
2023/09/28 08:20:26;;;;;;;37.85;12.85;;;;;;;;;;6198605;23;20283;-95
2023/09/28 08:23:33;;;;;;;36.42;12.10;;;;;;;;;;6199796;23;20203;-93
2023/09/28 08:26:39;;;;;;;37.17;14.05;;;;;;;;;;6201664;22;20223;-93
2023/09/28 08:29:44;;;;;;;49.05;15.18;;;;;;;;;;6204710;23;20206;-94
2023/09/28 08:32:51;;;;;;;50.90;14.60;;;;;;;;;;6202163;23;20168;-93
2023/09/28 08:36:01;;;;;;;44.58;15.93;;;;;;;;;;6201607;23;20171;-92
2023/09/28 08:39:06;;;;;;;44.22;16.92;;;;;;;;;;6206011;23;20192;-93
2023/09/28 08:42:14;;;;;;;52.47;18.80;;;;;;;;;;6187764;23;20164;-92
2023/09/28 08:45:19;;;;;;;58.78;18.52;;;;;;;;;;6203816;22;20220;-93
2023/09/28 08:48:27;;;;;;;53.50;18.52;;;;;;;;;;6203190;22;20172;-92
2023/09/28 08:51:32;;;;;;;55.92;20.20;;;;;;;;;;6199414;22;20170;-91
2023/09/28 08:54:48;;;;;;;57.97;20.80;;;;;;;;;;6204507;23;20160;-92
2023/09/28 08:57:54;;;;;;;44.80;20.35;;;;;;;;;;6201945;23;20169;-93
2023/09/28 09:01:01;;;;;;;46.63;20.50;;;;;;;;;;6203158;23;20206;-94
2023/09/28 09:07:29;;;;;;;37.50;18.67;;;;;;;;;;6205427;23;20168;-94
2023/09/28 09:10:35;;;;;;;35.75;18.08;;;;;;;;;;6203734;22;20171;-94
2023/09/28 09:13:49;;;;;;;36.50;18.40;;;;;;;;;;6204796;23;20172;-92
2023/09/28 09:17:08;;;;;;;38.92;18.88;;;;;;;;;;6203315;23;20167;-93
2023/09/28 09:20:15;;;;;;;41.33;20.55;;;;;;;;;;6204261;22;20179;-94
2023/09/28 09:23:22;;;;;;;34.80;18.88;;;;;;;;;;6201999;23;20186;-93
2023/09/28 09:26:27;;;;;;;37.88;18.75;;;;;;;;;;6205163;23;20615;-93
2023/09/28 09:29:38;;;;;;;35.13;18.55;;;;;;;;;;6202825;23;20167;-92
2023/09/28 09:32:50;;;;;;;37.60;18.27;;;;;;;;;;6204016;22;20312;-92
2023/09/28 09:36:13;;;;;;;38.90;18.35;;;;;;;;;;6189375;22;20219;-92
2023/09/28 09:39:35;;;;;;;34.97;18.17;;;;;;;;;;6189247;23;20216;-94
2023/09/28 09:42:41;;;;;;;39.63;19.83;;;;;;;;;;6202704;23;20224;-92
2023/09/28 09:45:47;;;;;;;36.97;18.98;;;;;;;;;;6203721;23;20163;-93
2023/09/28 09:48:53;;;;;;;39.80;20.17;;;;;;;;;;6204173;22;20219;-93
2023/09/28 09:52:02;;;;;;;36.55;19.35;;;;;;;;;;6204436;23;20287;-93
2023/09/28 09:55:09;;;;;;;36.65;19.90;;;;;;;;;;6203025;23;20187;-95
2023/09/28 09:58:16;;;;;;;37.88;18.88;;;;;;;;;;6182753;23;20216;-95
2023/09/28 10:01:22;;;;;;;32.88;17.83;;;;;;;;;;6201703;23;20226;-96
2023/09/28 10:04:27;;;;;;;32.00;17.67;;;;;;;;;;6201474;23;20204;-95
2023/09/28 10:07:35;;;;;;;31.58;17.38;;;;;;;;;;6185048;22;20172;-95
2023/09/28 10:10:45;;;;;;;30.50;15.73;;;;;;;;;;6200434;23;20239;-94
2023/09/28 10:13:52;;;;;;;28.92;15.25;;;;;;;;;;6185968;22;20186;-95
2023/09/28 10:16:58;;;;;;;34.20;15.75;;;;;;;;;;6184296;22;20216;-93
2023/09/28 10:20:08;;;;;;;27.70;14.88;;;;;;;;;;6202567;23;20168;-92
2023/09/28 10:23:15;;;;;;;30.38;15.68;;;;;;;;;;6203266;23;20159;-95
2023/09/28 10:26:22;;;;;;;23.58;13.85;;;;;;;;;;6203306;22;20175;-93
2023/09/28 10:29:30;;;;;;;24.05;14.60;;;;;;;;;;6201907;22;20147;-94
2023/09/28 10:32:36;;;;;;;25.45;13.68;;;;;;;;;;6202777;23;20172;-95
2023/09/28 10:35:42;;;;;;;22.98;14.02;;;;;;;;;;6204504;23;20171;-93
2023/09/28 10:39:10;;;;;;;25.70;12.82;;;;;;;;;;6201898;23;20279;-94
2023/09/28 10:42:17;;;;;;;20.15;11.90;;;;;;;;;;6202519;22;20249;-94
2023/09/28 10:45:36;;;;;;;20.58;12.45;;;;;;;;;;6204653;22;20265;-92
2023/09/28 10:48:42;;;;;;;24.48;13.10;;;;;;;;;;6202755;23;20163;-94
2023/09/28 10:51:47;;;;;;;18.05;11.75;;;;;;;;;;6206885;23;20171;-93
2023/09/28 10:54:53;;;;;;;20.75;11.63;;;;;;;;;;6202550;23;20168;-95
2023/09/28 10:58:06;;;;;;;22.20;11.63;;;;;;;;;;6186229;23;20194;-93
2023/09/28 11:01:12;;;;;;;19.20;10.95;;;;;;;;;;6203553;22;20186;-94
2023/09/28 11:27:47;;;;;;;17.75;9.57;;;;;;;;;;6193769;22;20211;-95
2023/09/28 11:31:04;;;;;;;12.65;9.20;;;;;;;;;;6179610;23;20348;-94
2023/09/28 11:34:12;;;;;;;20.65;9.77;;;;;;;;;;6180843;22;20242;-93
2023/09/28 11:37:17;;;;;;;18.25;10.13;;;;;;;;;;6183313;23;20258;-93
2023/09/28 11:40:23;;;;;;;14.57;9.75;;;;;;;;;;6183859;22;20253;-93
2023/09/28 11:43:30;;;;;;;17.25;10.13;;;;;;;;;;6182970;23;20178;-93
2023/09/28 11:46:35;;;;;;;17.00;10.10;;;;;;;;;;6181505;23;20171;-92
2023/09/28 11:49:43;;;;;;;17.50;11.30;;;;;;;;;;6184293;22;20158;-94
2023/09/28 11:52:48;;;;;;;20.65;11.55;;;;;;;;;;6199888;23;20175;-91
2023/09/28 11:55:54;;;;;;;21.25;11.43;;;;;;;;;;6201676;23;20154;-92
2023/09/28 11:59:02;;;;;;;19.42;10.73;;;;;;;;;;6200131;23;20167;-91
2023/09/28 12:02:09;;;;;;;19.98;11.88;;;;;;;;;;6202548;22;20241;-91
2023/09/28 12:08:10;;;;;;;17.20;10.40;;;;;;;;;;6193706;22;20196;-93
2023/09/28 12:14:37;;;;;;;18.20;9.75;;;;;;;;;;6199935;22;20192;-93
2023/09/28 12:17:43;;;;;;;18.60;10.05;;;;;;;;;;6183651;22;20156;-94
2023/09/28 12:20:55;;;;;;;18.70;10.50;;;;;;;;;;6200335;23;20225;-93
2023/09/28 12:24:02;;;;;;;24.70;16.15;;;;;;;;;;6202577;23;20168;-92
2023/09/28 12:27:09;;;;;;;15.98;10.15;;;;;;;;;;6185110;23;20288;-94
2023/09/28 12:30:21;;;;;;;19.08;10.20;;;;;;;;;;6183886;22;20287;-94
2023/09/28 12:33:27;;;;;;;16.75;8.93;;;;;;;;;;6201122;22;20172;-94
2023/09/28 12:36:32;;;;;;;16.13;9.43;;;;;;;;;;6182230;22;20187;-93
2023/09/28 12:43:09;;;;;;;18.23;9.77;;;;;;;;;;6185454;23;20167;-94
2023/09/28 12:46:27;;;;;;;19.15;10.63;;;;;;;;;;6186869;23;20208;-91
2023/09/28 12:49:32;;;;;;;13.80;9.80;;;;;;;;;;6202501;23;20212;-93
2023/09/28 12:52:37;;;;;;;19.95;9.52;;;;;;;;;;6184732;23;20168;-92
2023/09/28 12:55:43;;;;;;;17.25;10.25;;;;;;;;;;6185543;23;20506;-91
2023/09/28 12:58:49;;;;;;;19.75;10.55;;;;;;;;;;6199619;22;20242;-92
2023/09/28 13:01:56;;;;;;;18.23;9.98;;;;;;;;;;6183649;23;20196;-92
2023/09/28 13:05:02;;;;;;;17.33;10.18;;;;;;;;;;6185827;23;20203;-93
2023/09/28 13:08:08;;;;;;;17.98;10.95;;;;;;;;;;6202040;23;20192;-91
2023/09/28 13:11:17;;;;;;;15.57;10.15;;;;;;;;;;6203058;23;20183;-91
2023/09/28 13:14:25;;;;;;;17.88;10.70;;;;;;;;;;6202242;22;20155;-91
2023/09/28 13:17:32;;;;;;;15.55;10.00;;;;;;;;;;6183486;23;20156;-93
2023/09/28 13:20:39;;;;;;;15.55;9.20;;;;;;;;;;6203092;23;20167;-90
2023/09/28 13:23:43;;;;;;;16.73;10.40;;;;;;;;;;6185325;23;20171;-91
2023/09/28 13:26:50;;;;;;;19.10;10.80;;;;;;;;;;6201230;23;20167;-91
2023/09/28 13:29:55;;;;;;;15.25;8.98;;;;;;;;;;6201120;22;20156;-92
2023/09/28 13:33:04;;;;;;;15.00;9.07;;;;;;;;;;6184499;23;20280;-93
2023/09/28 13:36:11;;;;;;;13.00;8.82;;;;;;;;;;6188002;23;20209;-92
2023/09/28 13:39:27;;;;;;;13.23;7.90;;;;;;;;;;6187889;23;20167;-92
2023/09/28 13:42:32;;;;;;;12.30;7.88;;;;;;;;;;6187048;23;20164;-90
2023/09/28 13:45:37;;;;;;;13.32;7.20;;;;;;;;;;6186008;22;20271;-90
2023/09/28 13:48:44;;;;;;;10.73;6.88;;;;;;;;;;6182668;23;20184;-92
2023/09/28 13:51:51;;;;;;;12.48;7.03;;;;;;;;;;6187261;23;20234;-91
2023/09/28 13:54:59;;;;;;;16.48;7.65;;;;;;;;;;6186256;23;20247;-93
2023/09/28 13:58:04;;;;;;;14.55;8.45;;;;;;;;;;6187141;22;20155;-93
2023/09/28 14:01:13;;;;;;;14.77;8.02;;;;;;;;;;6187136;22;20632;-93
2023/09/28 14:04:20;;;;;;;13.15;7.80;;;;;;;;;;6185595;23;20164;-93
2023/09/28 14:07:26;;;;;;;10.02;6.78;;;;;;;;;;6185883;23;20187;-93
2023/09/28 14:10:34;;;;;;;12.85;6.82;;;;;;;;;;6205367;23;20159;-92
2023/09/28 14:13:39;;;;;;;12.38;7.97;;;;;;;;;;6188873;23;20176;-91
2023/09/28 14:16:44;;;;;;;14.50;7.90;;;;;;;;;;6185570;23;20168;-91
2023/09/28 14:19:51;;;;;;;14.38;7.40;;;;;;;;;;6186974;23;20171;-91
2023/09/28 14:22:57;;;;;;;10.45;7.43;;;;;;;;;;6183452;23;20163;-92
2023/09/28 14:26:03;;;;;;;11.38;6.80;;;;;;;;;;6181856;23;20190;-91
2023/09/28 14:29:08;;;;;;;17.75;7.95;;;;;;;;;;6184246;22;20176;-91
2023/09/28 14:32:14;;;;;;;10.60;6.95;;;;;;;;;;6184267;22;20218;-91
2023/09/28 14:35:24;;;;;;;12.73;7.05;;;;;;;;;;6186498;23;20176;-93
2023/09/28 14:38:31;;;;;;;13.77;6.32;;;;;;;;;;6188674;23;20217;-90
2023/09/28 14:41:38;;;;;;;13.75;6.93;;;;;;;;;;6184974;23;20159;-92
2023/09/28 14:44:44;;;;;;;11.27;6.68;;;;;;;;;;6185663;23;20682;-94
2023/09/28 14:47:51;;;;;;;12.32;7.00;;;;;;;;;;6185487;23;20179;-91
2023/09/28 14:50:57;;;;;;;12.48;6.35;;;;;;;;;;6184370;23;20611;-91
2023/09/28 14:54:02;;;;;;;15.50;6.18;;;;;;;;;;6184341;23;20183;-92
2023/09/28 14:57:11;;;;;;;16.67;6.97;;;;;;;;;;6187608;22;20167;-91
2023/09/28 15:00:16;;;;;;;13.63;7.00;;;;;;;;;;6185611;23;20171;-93
2023/09/28 15:06:43;;;;;;;12.30;6.32;;;;;;;;;;6202781;23;20179;-92
2023/09/28 15:09:49;;;;;;;11.15;6.20;;;;;;;;;;6183122;23;20191;-90
2023/09/28 15:12:54;;;;;;;12.40;6.10;;;;;;;;;;6180544;23;20147;-92
2023/09/28 15:16:00;;;;;;;7.68;4.93;;;;;;;;;;6182930;23;20195;-92
2023/09/28 15:19:06;;;;;;;9.48;5.53;;;;;;;;;;6183994;23;20187;-91
2023/09/28 15:22:13;;;;;;;7.95;4.45;;;;;;;;;;6183049;23;20216;-92
2023/09/28 15:25:18;;;;;;;8.07;4.20;;;;;;;;;;6182372;23;20194;-92
2023/09/28 15:28:23;;;;;;;9.30;4.38;;;;;;;;;;6186819;22;20211;-92
2023/09/28 15:31:39;;;;;;;6.53;4.03;;;;;;;;;;6169457;23;20211;-93
2023/09/28 15:34:49;;;;;;;7.82;4.63;;;;;;;;;;6183970;23;20168;-92
2023/09/28 15:37:56;;;;;;;10.70;4.55;;;;;;;;;;6182810;23;20244;-93
2023/09/28 15:41:03;;;;;;;10.98;4.55;;;;;;;;;;6186011;23;20171;-93
2023/09/28 15:44:09;;;;;;;9.23;4.40;;;;;;;;;;6184365;23;20170;-91
2023/09/28 15:47:14;;;;;;;6.95;4.30;;;;;;;;;;6185179;23;20247;-90
2023/09/28 15:50:23;;;;;;;9.88;5.15;;;;;;;;;;6186511;23;20174;-93
2023/09/28 15:57:05;;;;;;;8.55;4.70;;;;;;;;;;6187232;22;20226;-91
2023/09/28 16:00:12;;;;;;;11.02;4.90;;;;;;;;;;6188104;23;20160;-90
2023/09/28 16:03:18;;;;;;;9.88;5.00;;;;;;;;;;6187732;23;20156;-89
2023/09/28 16:06:24;;;;;;;11.57;6.10;;;;;;;;;;6203580;22;20277;-90
2023/09/28 16:09:30;;;;;;;11.30;6.20;;;;;;;;;;6183752;23;20156;-93
2023/09/28 16:12:36;;;;;;;14.93;6.35;;;;;;;;;;6183263;23;20618;-93
2023/09/28 16:15:45;;;;;;;14.90;6.50;;;;;;;;;;6183391;23;20167;-91
2023/09/28 16:18:50;;;;;;;12.35;5.50;;;;;;;;;;6184595;23;20170;-91
2023/09/28 16:21:56;;;;;;;9.90;5.50;;;;;;;;;;6185964;23;20228;-91
2023/09/28 16:25:03;;;;;;;12.30;5.70;;;;;;;;;;6184531;23;20172;-93
2023/09/28 16:28:10;;;;;;;10.85;6.32;;;;;;;;;;6183107;23;20167;-92
2023/09/28 16:31:15;;;;;;;13.27;6.45;;;;;;;;;;6183443;23;20167;-93
2023/09/28 16:34:22;;;;;;;30.05;16.08;;;;;;;;;;6185248;23;20179;-93
2023/09/28 16:37:28;;;;;;;15.23;6.85;;;;;;;;;;6202637;22;20200;-92
2023/09/28 16:40:33;;;;;;;14.50;7.00;;;;;;;;;;6187310;23;20191;-93
2023/09/28 16:43:41;;;;;;;11.77;7.25;;;;;;;;;;6184737;23;20249;-93
2023/09/28 16:46:46;;;;;;;15.82;8.60;;;;;;;;;;6186007;23;20200;-89
2023/09/28 16:49:52;;;;;;;26.85;12.10;;;;;;;;;;6187376;23;20172;-91
2023/09/28 16:53:01;;;;;;;14.75;7.80;;;;;;;;;;6204715;22;20164;-91
2023/09/28 16:56:06;;;;;;;17.35;8.20;;;;;;;;;;6186509;23;20251;-91
2023/09/28 16:59:13;;;;;;;18.30;8.57;;;;;;;;;;6186653;23;20503;-92
2023/09/28 17:02:22;;;;;;;11.82;7.47;;;;;;;;;;6185980;23;20631;-92
2023/09/28 17:05:27;;;;;;;17.30;7.80;;;;;;;;;;6184405;23;20188;-90
2023/09/28 17:08:35;;;;;;;11.93;7.15;;;;;;;;;;6185650;23;20175;-91
2023/09/28 17:11:42;;;;;;;10.65;6.90;;;;;;;;;;6185975;22;20164;-90
2023/09/28 17:14:49;;;;;;;17.55;7.10;;;;;;;;;;6185233;22;20212;-90
2023/09/28 17:17:57;;;;;;;19.40;11.10;;;;;;;;;;6186406;23;20216;-90
2023/09/28 17:21:02;;;;;;;17.40;8.73;;;;;;;;;;6201517;23;20172;-91
2023/09/28 17:24:08;;;;;;;19.70;9.20;;;;;;;;;;6203826;22;20180;-92
2023/09/28 17:27:14;;;;;;;16.33;8.98;;;;;;;;;;6186017;22;20647;-92
2023/09/28 17:30:21;;;;;;;21.33;12.48;;;;;;;;;;6186701;23;20172;-91
2023/09/28 17:33:27;;;;;;;18.70;9.82;;;;;;;;;;6202092;23;20211;-92
2023/09/28 17:36:32;;;;;;;18.13;9.80;;;;;;;;;;6186873;23;20233;-91
2023/09/28 17:39:37;;;;;;;12.10;8.13;;;;;;;;;;6186864;22;20167;-90
2023/09/28 17:42:57;;;;;;;16.23;9.23;;;;;;;;;;6187230;22;20172;-91
2023/09/28 17:46:05;;;;;;;16.58;9.27;;;;;;;;;;6187970;23;20285;-90
2023/09/28 17:49:11;;;;;;;14.07;8.85;;;;;;;;;;6187333;23;20259;-91
2023/09/28 17:52:18;;;;;;;15.75;10.00;;;;;;;;;;6203355;22;20156;-91
2023/09/28 17:55:24;;;;;;;16.13;8.88;;;;;;;;;;6200918;23;20167;-91
2023/09/28 17:58:30;;;;;;;17.45;9.45;;;;;;;;;;6189139;23;20196;-91
2023/09/28 18:01:44;;;;;;;22.15;10.70;;;;;;;;;;6186230;23;20175;-90
2023/09/28 18:04:50;;;;;;;27.80;15.48;;;;;;;;;;6203516;23;20180;-91
2023/09/28 18:07:58;;;;;;;22.08;13.13;;;;;;;;;;6185110;22;20248;-90
2023/09/28 18:11:04;;;;;;;24.90;12.27;;;;;;;;;;6204665;22;20237;-90
2023/09/28 18:14:09;;;;;;;19.05;10.52;;;;;;;;;;6185927;23;20172;-93
2023/09/28 18:17:16;;;;;;;23.63;10.90;;;;;;;;;;6203814;23;20663;-91
2023/09/28 18:20:22;;;;;;;16.15;9.82;;;;;;;;;;6182213;23;20172;-91
2023/09/28 18:23:28;;;;;;;16.60;10.45;;;;;;;;;;6184501;22;20168;-89
2023/09/28 18:26:33;;;;;;;17.08;9.00;;;;;;;;;;6199362;23;20199;-91
2023/09/28 18:29:38;;;;;;;19.33;10.15;;;;;;;;;;6189698;22;20200;-92
2023/09/28 18:32:46;;;;;;;19.10;10.70;;;;;;;;;;6197357;23;20218;-93
2023/09/28 18:39:11;;;;;;;24.92;10.43;;;;;;;;;;6186268;22;20168;-91
2023/09/28 18:42:17;;;;;;;16.10;9.93;;;;;;;;;;6183447;23;20498;-92
2023/09/28 18:45:23;;;;;;;19.15;10.23;;;;;;;;;;6183598;23;20164;-92
2023/09/28 18:48:29;;;;;;;17.05;9.60;;;;;;;;;;6180679;23;20600;-93
2023/09/28 18:51:36;;;;;;;16.75;9.88;;;;;;;;;;6182405;23;20168;-92
2023/09/28 18:54:42;;;;;;;23.77;13.93;;;;;;;;;;6187625;22;20171;-95
2023/09/28 18:57:49;;;;;;;17.38;10.77;;;;;;;;;;6207389;23;20176;-92
2023/09/28 19:01:00;;;;;;;18.58;9.73;;;;;;;;;;6188867;23;20168;-92
2023/09/28 22:03:21;;;;;;;30.73;16.90;;;;;;;;;;6174651;23;20210;-92
2023/09/28 22:06:27;;;;;;;31.20;16.48;;;;;;;;;;6212319;23;20206;-94
2023/09/28 22:09:33;;;;;;;23.67;13.93;;;;;;;;;;6214596;22;20175;-92
2023/09/28 22:12:41;;;;;;;25.25;13.85;;;;;;;;;;6235197;22;20214;-91
2023/09/28 22:15:46;;;;;;;24.30;13.73;;;;;;;;;;6216382;22;20147;-94
2023/09/28 22:18:53;;;;;;;27.70;15.00;;;;;;;;;;6214455;23;20207;-94
2023/09/28 22:21:59;;;;;;;23.85;14.05;;;;;;;;;;6213600;23;20242;-93
2023/09/28 22:25:05;;;;;;;23.73;13.73;;;;;;;;;;6212547;22;20160;-93
2023/09/28 22:28:11;;;;;;;25.25;13.50;;;;;;;;;;6213314;22;20151;-92
2023/09/28 22:31:16;;;;;;;26.10;12.90;;;;;;;;;;6213579;22;20167;-92
2023/09/28 22:34:23;;;;;;;23.33;14.02;;;;;;;;;;6213600;23;20166;-94
2023/09/28 22:37:28;;;;;;;24.35;14.27;;;;;;;;;;6214742;23;20171;-93
2023/09/28 22:40:34;;;;;;;28.35;13.90;;;;;;;;;;6214909;23;20167;-91
2023/09/28 22:43:39;;;;;;;21.75;13.38;;;;;;;;;;6212653;23;20219;-95
2023/09/28 22:46:45;;;;;;;37.95;14.50;;;;;;;;;;6213581;23;20191;-94
2023/09/28 22:49:52;;;;;;;26.33;13.35;;;;;;;;;;6212273;23;20228;-94
2023/09/28 22:52:58;;;;;;;29.48;15.00;;;;;;;;;;6211968;23;20155;-91
2023/09/28 22:56:03;;;;;;;24.98;13.55;;;;;;;;;;6212001;23;20171;-90
2023/09/28 22:59:09;;;;;;;28.00;14.85;;;;;;;;;;6212653;23;20171;-94
2023/09/28 23:02:14;;;;;;;31.67;14.88;;;;;;;;;;6224528;23;20202;-93
2023/09/28 23:05:20;;;;;;;26.60;14.40;;;;;;;;;;6229464;23;20491;-92
2023/09/28 23:08:26;;;;;;;26.80;14.23;;;;;;;;;;6228973;23;20500;-91
2023/09/28 23:11:31;;;;;;;27.08;14.85;;;;;;;;;;6228019;23;20163;-93
2023/09/28 23:14:37;;;;;;;24.77;14.35;;;;;;;;;;6228545;23;20164;-93
2023/09/28 23:17:42;;;;;;;25.98;13.55;;;;;;;;;;6228582;23;20179;-93
2023/09/28 23:20:49;;;;;;;26.65;14.18;;;;;;;;;;6230677;23;20236;-92
2023/09/28 23:23:56;;;;;;;44.75;14.50;;;;;;;;;;6229777;23;20179;-93
2023/09/28 23:27:01;;;;;;;27.88;14.50;;;;;;;;;;6227872;23;20216;-92
2023/09/28 23:30:18;;;;;;;37.17;15.05;;;;;;;;;;6231313;23;20155;-93
2023/09/28 23:33:26;;;;;;;27.23;14.18;;;;;;;;;;6230520;23;20175;-93
2023/09/28 23:36:35;;;;;;;28.77;14.50;;;;;;;;;;6231592;23;20175;-93
2023/09/28 23:39:42;;;;;;;26.27;14.68;;;;;;;;;;6231602;23;20175;-91
2023/09/28 23:42:47;;;;;;;29.02;14.70;;;;;;;;;;6231137;23;20218;-93
2023/09/28 23:45:53;;;;;;;32.63;13.40;;;;;;;;;;6231132;23;20174;-94
2023/09/28 23:49:00;;;;;;;38.20;15.93;;;;;;;;;;6230521;23;20190;-93
2023/09/28 23:52:07;;;;;;;28.95;14.73;;;;;;;;;;6231138;23;20168;-92
2023/09/28 23:55:14;;;;;;;33.65;14.23;;;;;;;;;;6229923;23;20179;-94
2023/09/28 23:58:19;;;;;;;26.05;13.95;;;;;;;;;;6229330;23;20157;-94
